createdAt,value
2023-03-03T00:02:50.121Z,50.25
2023-03-03T00:08:54.355Z,52.00
2023-03-03T00:14:58.731Z,56.75
2023-03-03T00:21:05.583Z,61.75
2023-03-03T00:27:36.269Z,48.75
2023-03-03T00:34:00.673Z,56.50
2023-03-03T00:40:26.035Z,55.00
2023-03-03T00:46:31.214Z,50.75
2023-03-03T00:52:41.926Z,51.00
2023-03-03T00:58:48.564Z,59.50
2023-03-03T01:04:57.772Z,66.00
2023-03-03T01:11:09.676Z,57.00
2023-03-03T01:17:15.539Z,58.50
2023-03-03T01:23:18.761Z,51.25
2023-03-03T01:29:25.711Z,62.50
2023-03-03T01:35:30.544Z,66.75
2023-03-03T01:41:36.033Z,61.50
2023-03-03T01:47:50.157Z,58.00
2023-03-03T01:53:58.732Z,65.50
2023-03-03T02:00:05.634Z,58.00
2023-03-03T02:06:39.389Z,53.00
2023-03-03T02:12:48.256Z,49.75
2023-03-03T02:18:55.577Z,56.25
2023-03-03T02:25:03.987Z,66.00
2023-03-03T02:31:19.342Z,50.50
2023-03-03T02:37:26.982Z,61.50
2023-03-03T02:43:44.927Z,57.25
2023-03-03T02:49:47.393Z,57.50
2023-03-03T02:55:54.220Z,56.00
2023-03-03T03:01:56.894Z,53.00
2023-03-03T03:08:01.166Z,54.25
2023-03-03T03:14:10.961Z,54.50
2023-03-03T03:20:16.350Z,51.75
2023-03-03T03:26:22.265Z,54.50
2023-03-03T03:32:30.246Z,47.50
2023-03-03T03:38:38.118Z,52.00
2023-03-03T03:44:43.156Z,55.75
2023-03-03T03:50:49.375Z,53.75
2023-03-03T03:56:52.463Z,48.00
2023-03-03T04:02:56.533Z,55.00
2023-03-03T04:09:02.525Z,57.50
2023-03-03T04:15:10.728Z,47.00
2023-03-03T04:21:17.180Z,53.50
2023-03-03T04:27:22.827Z,55.00
2023-03-03T04:33:26.941Z,45.50
2023-03-03T04:39:30.895Z,52.25
2023-03-03T04:45:34.839Z,57.00
2023-03-03T04:51:37.602Z,58.50
2023-03-03T04:57:46.560Z,58.00
2023-03-03T05:03:50.285Z,54.25
2023-03-03T12:19:24.785Z,60.50
2023-03-03T12:33:36.399Z,75.75
2023-03-03T12:40:43.535Z,71.00
2023-03-03T12:47:36.745Z,66.00
2023-03-03T12:54:44.583Z,72.50
2023-03-03T13:08:47.592Z,59.25
2023-03-03T13:16:01.059Z,60.80
2023-03-03T13:29:48.042Z,66.00
2023-03-03T13:43:33.587Z,68.25
2023-03-03T13:50:19.277Z,62.50
2023-03-03T13:57:17.068Z,63.25
2023-03-03T14:04:04.957Z,57.75
2023-03-03T14:10:36.522Z,67.75
2023-03-03T14:17:13.047Z,67.50
2023-03-03T14:23:45.066Z,56.25
2023-03-03T14:29:48.560Z,64.25
2023-03-03T14:36:12.545Z,60.75
2023-03-03T14:42:33.952Z,75.00
2023-03-03T14:48:52.334Z,65.75
2023-03-03T14:54:57.648Z,64.50
2023-03-03T15:01:26.540Z,64.25
2023-03-03T15:07:38.362Z,72.00
2023-03-03T15:13:40.914Z,59.50
2023-03-03T15:19:52.404Z,68.75
2023-03-03T15:26:19.426Z,63.75
2023-03-03T15:32:31.420Z,75.75
2023-03-03T15:38:47.605Z,86.75
2023-03-03T15:45:06.557Z,70.75
2023-03-03T15:51:50.740Z,67.50
2023-03-03T15:58:37.041Z,75.00
2023-03-03T16:05:01.809Z,63.25
2023-03-03T16:11:19.278Z,70.50
2023-03-03T16:17:35.118Z,71.75
2023-03-03T16:23:58.241Z,59.25
2023-03-03T16:30:46.644Z,76.75
2023-03-03T16:37:10.053Z,64.50
2023-03-03T16:43:16.363Z,71.25
2023-03-03T16:49:43.500Z,57.25
2023-03-03T16:56:14.637Z,71.00
2023-03-03T17:02:46.602Z,70.75
2023-03-03T17:09:03.670Z,75.75
2023-03-03T17:15:17.894Z,71.00
2023-03-03T17:21:30.215Z,69.75
2023-03-03T17:27:50.531Z,73.75
2023-03-03T17:34:16.399Z,80.50
2023-03-03T17:41:03.493Z,77.50
2023-03-03T17:47:13.448Z,71.25
2023-03-03T17:53:40.086Z,78.25
2023-03-03T17:59:42.163Z,78.75
2023-03-03T18:06:03.058Z,71.00
2023-03-03T18:12:10.645Z,78.75
2023-03-03T18:18:26.749Z,80.50
2023-03-03T18:24:33.935Z,84.25
2023-03-03T18:31:05.362Z,78.00
2023-03-03T18:37:37.482Z,79.25
2023-03-03T18:43:46.108Z,84.00
2023-03-03T18:49:48.719Z,75.25
2023-03-03T18:55:54.298Z,79.50
2023-03-03T19:02:11.492Z,78.00
2023-03-03T19:08:25.084Z,79.75
2023-03-03T19:14:34.696Z,82.25
2023-03-03T19:20:42.236Z,77.50
2023-03-03T19:27:09.610Z,83.25
2023-03-03T19:33:28.324Z,79.67
2023-03-03T19:39:59.166Z,75.00
2023-03-03T19:46:38.302Z,87.25
2023-03-03T19:52:57.896Z,81.00
2023-03-03T19:59:06.526Z,88.75
2023-03-03T20:05:20.853Z,81.75
2023-03-03T20:11:48.189Z,82.00
2023-03-03T20:18:10.169Z,83.00
2023-03-03T20:24:43.614Z,90.50
2023-03-03T20:30:49.624Z,85.25
2023-03-03T20:37:13.261Z,86.75
2023-03-03T20:43:43.993Z,87.25
2023-03-03T20:50:20.327Z,87.00
2023-03-03T20:56:52.514Z,87.00
2023-03-03T21:02:57.335Z,87.50
2023-03-03T21:08:59.538Z,83.00
2023-03-03T21:15:08.146Z,88.25
2023-03-03T21:21:10.470Z,77.50
2023-03-03T21:27:25.872Z,86.25
2023-03-03T21:33:45.315Z,83.50
2023-03-03T21:40:25.257Z,83.75
2023-03-03T21:46:27.931Z,91.25
2023-03-03T21:52:30.616Z,89.50
2023-03-03T21:58:37.105Z,88.67
2023-03-03T22:04:41.334Z,92.33
2023-03-03T22:10:43.589Z,82.75
2023-03-03T22:16:46.042Z,87.67
2023-03-03T22:22:48.249Z,88.67
2023-03-03T22:28:50.410Z,87.25
2023-03-03T22:34:52.701Z,79.25
2023-03-03T22:40:55.971Z,83.67
2023-03-03T22:46:58.118Z,92.67
2023-03-03T22:53:01.574Z,83.00
2023-03-03T22:59:03.628Z,90.00
2023-03-03T23:05:11.173Z,85.25
2023-03-03T23:11:13.836Z,88.00
2023-03-03T23:17:16.026Z,82.75
2023-03-03T23:23:18.109Z,86.75
2023-03-03T23:29:20.570Z,78.50
2023-03-03T23:35:22.964Z,91.25
2023-03-03T23:41:26.527Z,83.50
2023-03-03T23:47:28.716Z,91.00
2023-03-03T23:53:31.126Z,92.25
2023-03-03T23:59:33.296Z,91.00
